PWSweather.com
Personal Weather Stations
Station Observations
DW6440
Atglen Borough, Atglen, PA 19310

Atglen BoroughAtglen, PA 19310

Lat: 39.9469, Lon: -75.979

Elevation: 498

Station Type: Davis Vantage Pro 2

http://atglenweather.net/

Latest ConditionsUpdated 10:08:07 AM EDT Monday, Sep 24, 2018
Currently Today's Max Today's Min Today's Average
Temperature 60.4°F15.8°C 60.4°F15.8°C 59.4°F15.2°C 59.9°F15.5°C
Dew Point 59.5°F15.3°C 59.5°F15.3°C 58.3°F14.6°C 58.9°F14.9°C
Winds 2.0 mph SE3.2 kmh SE 2.9 mph -4.7 kmh - - 1.1 mph 1.8 kmh
Wind Gusts 8.0 mph12.9 kmh 10.1 mph16.3 kmh - -
Humidity 97% 97% 96% 97%
Pressure 30.39 in1029.1 mb 30.39 in1029.1 mb 30.26 in1024.7 mb -
Precipitation - 0.03 in0.8 mm - -
Hour Temp Dew Point Humidity Winds Wind Gusts Pressure Precip Precip Rate Daily Precip Total
10:08 AM 60.4°F15.8°C 59.5°F15.3°C 97% 2.0 mph SE3.2 kmh SE 8.0 mph12.9 kmh 30.39 in1029.1 mb 0.00 in0.0 mm 0.00 in0.0 mm 0.03 in0.8 mm
09:53 AM 60.4°F15.8°C 59.5°F15.3°C 97% 2.9 mph ESE4.7 kmh ESE 8.9 mph14.3 kmh 30.39 in1029.1 mb 0.00 in0.0 mm 0.00 in0.0 mm 0.03 in0.8 mm
09:38 AM 60.3°F15.7°C 59.4°F15.2°C 97% 2.0 mph SE3.2 kmh SE 6.9 mph11.1 kmh 30.37 in1028.4 mb 0.00 in0.0 mm 0.00 in0.0 mm 0.03 in0.8 mm
09:23 AM 60.4°F15.8°C 59.5°F15.3°C 97% 2.0 mph ESE3.2 kmh ESE 8.1 mph13.0 kmh 30.37 in1028.4 mb 0.00 in0.0 mm 0.00 in0.0 mm 0.03 in0.8 mm
09:08 AM 60.4°F15.8°C 59.5°F15.3°C 97% 2.0 mph NE3.2 kmh NE 8.1 mph13.0 kmh 30.37 in1028.4 mb 0.00 in0.0 mm 0.00 in0.0 mm 0.03 in0.8 mm
08:53 AM 60.4°F15.8°C 59.5°F15.3°C 97% 0.9 mph ENE1.4 kmh ENE 4.0 mph6.4 kmh 30.37 in1028.4 mb 0.00 in0.0 mm 0.00 in0.0 mm 0.03 in0.8 mm
08:38 AM 60.3°F15.7°C 59.4°F15.2°C 97% 0.9 mph NE1.4 kmh NE 6.0 mph9.7 kmh 30.36 in1028.1 mb 0.01 in0.3 mm 0.00 in0.0 mm 0.03 in0.8 mm
08:23 AM 60.4°F15.8°C 59.5°F15.3°C 97% 0.9 mph NE1.4 kmh NE 2.9 mph4.7 kmh 30.36 in1028.1 mb 0.01 in0.3 mm 0.00 in0.0 mm 0.03 in0.8 mm
08:08 AM 60.3°F15.7°C 59.4°F15.2°C 97% 0.9 mph SE1.4 kmh SE 7.0 mph11.3 kmh 30.35 in1027.8 mb 0.01 in0.3 mm 0.00 in0.0 mm 0.03 in0.8 mm
07:53 AM 60.3°F15.7°C 59.4°F15.2°C 97% 0.9 mph E1.4 kmh E 4.0 mph6.4 kmh 30.35 in1027.8 mb 0.01 in0.3 mm 0.04 in1.0 mm 0.03 in0.8 mm
07:38 AM 60.1°F15.6°C 59.2°F15.1°C 97% 0.9 mph SE1.4 kmh SE 4.0 mph6.4 kmh 30.34 in1027.4 mb 0.00 in0.0 mm 0.00 in0.0 mm 0.02 in0.5 mm
07:23 AM 60.1°F15.6°C 59.2°F15.1°C 97% 2.0 mph ESE3.2 kmh ESE 10.1 mph16.3 kmh 30.34 in1027.4 mb 0.00 in0.0 mm 0.00 in0.0 mm 0.02 in0.5 mm
07:08 AM 59.9°F15.5°C 59.0°F15.0°C 97% 0.9 mph E1.4 kmh E 6.9 mph11.1 kmh 30.33 in1027.1 mb 0.00 in0.0 mm 0.00 in0.0 mm 0.02 in0.5 mm
06:53 AM 59.9°F15.5°C 59.0°F15.0°C 97% 0.9 mph ESE1.4 kmh ESE 6.0 mph9.7 kmh 30.32 in1026.8 mb 0.00 in0.0 mm 0.00 in0.0 mm 0.02 in0.5 mm
06:38 AM 59.7°F15.4°C 58.8°F14.9°C 97% 0.9 mph SE1.4 kmh SE 6.9 mph11.1 kmh 30.32 in1026.8 mb 0.00 in0.0 mm 0.00 in0.0 mm 0.02 in0.5 mm
06:23 AM 59.7°F15.4°C 58.8°F14.9°C 97% 0.9 mph ENE1.4 kmh ENE 6.0 mph9.7 kmh 30.31 in1026.4 mb 0.00 in0.0 mm 0.00 in0.0 mm 0.02 in0.5 mm
06:08 AM 59.9°F15.5°C 59.0°F15.0°C 97% 0.9 mph E1.4 kmh E 4.9 mph7.9 kmh 30.31 in1026.4 mb 0.00 in0.0 mm 0.00 in0.0 mm 0.02 in0.5 mm
05:53 AM 60.1°F15.6°C 59.2°F15.1°C 97% 2.0 mph ESE3.2 kmh ESE 8.1 mph13.0 kmh 30.30 in1026.1 mb 0.00 in0.0 mm 0.00 in0.0 mm 0.02 in0.5 mm
05:38 AM 60.1°F15.6°C 59.2°F15.1°C 97% 2.0 mph ESE3.2 kmh ESE 10.1 mph16.3 kmh 30.30 in1026.1 mb 0.00 in0.0 mm 0.00 in0.0 mm 0.02 in0.5 mm
05:23 AM 60.1°F15.6°C 59.2°F15.1°C 97% 2.0 mph E3.2 kmh E 10.1 mph16.3 kmh 30.29 in1025.7 mb 0.00 in0.0 mm 0.00 in0.0 mm 0.02 in0.5 mm
05:08 AM 60.1°F15.6°C 59.2°F15.1°C 97% 2.0 mph E3.2 kmh E 8.9 mph14.3 kmh 30.29 in1025.7 mb 0.00 in0.0 mm 0.00 in0.0 mm 0.02 in0.5 mm
04:53 AM 60.1°F15.6°C 59.2°F15.1°C 97% 0.9 mph ESE1.4 kmh ESE 4.0 mph6.4 kmh 30.29 in1025.7 mb 0.00 in0.0 mm 0.00 in0.0 mm 0.02 in0.5 mm
04:37 AM 60.1°F15.6°C 59.2°F15.1°C 97% 0.9 mph E1.4 kmh E 4.0 mph6.4 kmh 30.29 in1025.7 mb 0.00 in0.0 mm 0.00 in0.0 mm 0.02 in0.5 mm
04:22 AM 60.1°F15.6°C 59.2°F15.1°C 97% Calm Calm 4.0 mph6.4 kmh 30.28 in1025.4 mb 0.00 in0.0 mm 0.00 in0.0 mm 0.02 in0.5 mm
04:07 AM 60.1°F15.6°C 59.2°F15.1°C 97% Calm Calm 2.9 mph4.7 kmh 30.28 in1025.4 mb 0.00 in0.0 mm 0.00 in0.0 mm 0.02 in0.5 mm
03:52 AM 59.9°F15.5°C 59.0°F15.0°C 97% 0.9 mph SE1.4 kmh SE 6.9 mph11.1 kmh 30.28 in1025.4 mb 0.00 in0.0 mm 0.00 in0.0 mm 0.02 in0.5 mm
03:37 AM 59.9°F15.5°C 59.0°F15.0°C 97% 2.0 mph ESE3.2 kmh ESE 6.0 mph9.7 kmh 30.27 in1025.1 mb 0.00 in0.0 mm 0.00 in0.0 mm 0.02 in0.5 mm
03:22 AM 59.7°F15.4°C 58.8°F14.9°C 97% 0.9 mph E1.4 kmh E 6.0 mph9.7 kmh 30.27 in1025.1 mb 0.00 in0.0 mm 0.00 in0.0 mm 0.02 in0.5 mm
03:07 AM 59.7°F15.4°C 58.6°F14.8°C 96% 0.9 mph NE1.4 kmh NE 4.0 mph6.4 kmh 30.27 in1025.1 mb 0.01 in0.3 mm 0.00 in0.0 mm 0.02 in0.5 mm
02:52 AM 59.5°F15.3°C 58.5°F14.7°C 96% 0.9 mph NE1.4 kmh NE 4.9 mph7.9 kmh 30.27 in1025.1 mb 0.01 in0.3 mm 0.00 in0.0 mm 0.02 in0.5 mm
02:37 AM 59.5°F15.3°C 58.6°F14.8°C 97% 0.9 mph ESE1.4 kmh ESE 6.0 mph9.7 kmh 30.27 in1025.1 mb 0.01 in0.3 mm 0.00 in0.0 mm 0.02 in0.5 mm
02:22 AM 59.4°F15.2°C 58.3°F14.6°C 96% Calm Calm 4.0 mph6.4 kmh 30.28 in1025.4 mb 0.02 in0.5 mm 0.04 in1.0 mm 0.02 in0.5 mm
02:07 AM 59.4°F15.2°C 58.3°F14.6°C 96% 0.9 mph ENE1.4 kmh ENE 7.0 mph11.3 kmh 30.27 in1025.1 mb 0.01 in0.3 mm 0.00 in0.0 mm 0.01 in0.3 mm
01:52 AM 59.4°F15.2°C 58.3°F14.6°C 96% Calm Calm 2.0 mph3.2 kmh 30.27 in1025.1 mb 0.01 in0.3 mm 0.00 in0.0 mm 0.01 in0.3 mm
01:37 AM 59.4°F15.2°C 58.3°F14.6°C 96% 0.9 mph E1.4 kmh E 4.0 mph6.4 kmh 30.27 in1025.1 mb 0.01 in0.3 mm 0.04 in1.0 mm 0.01 in0.3 mm
01:22 AM 59.4°F15.2°C 58.3°F14.6°C 96% 0.9 mph ESE1.4 kmh ESE 2.0 mph3.2 kmh 30.26 in1024.7 mb 0.00 in0.0 mm 0.00 in0.0 mm 0.00 in0.0 mm
01:07 AM 59.4°F15.2°C 58.3°F14.6°C 96% Calm Calm 4.0 mph6.4 kmh 30.27 in1025.1 mb 0.00 in0.0 mm 0.00 in0.0 mm 0.00 in0.0 mm
12:52 AM 59.4°F15.2°C 58.3°F14.6°C 96% 0.9 mph ESE1.4 kmh ESE 6.0 mph9.7 kmh 30.26 in1024.7 mb 0.00 in0.0 mm 0.00 in0.0 mm 0.00 in0.0 mm
12:37 AM 59.4°F15.2°C 58.3°F14.6°C 96% 0.9 mph NE1.4 kmh NE 3.0 mph4.8 kmh 30.27 in1025.1 mb 0.00 in0.0 mm 0.00 in0.0 mm 0.00 in0.0 mm
12:22 AM 59.4°F15.2°C 58.3°F14.6°C 96% Calm Calm 2.0 mph3.2 kmh 30.26 in1024.7 mb 0.00 in0.0 mm 0.00 in0.0 mm 0.00 in0.0 mm
12:07 AM 59.4°F15.2°C 58.3°F14.6°C 96% Calm Calm 2.0 mph3.2 kmh 30.27 in1025.1 mb 0.00 in0.0 mm 0.00 in0.0 mm 0.00 in0.0 mm